Mc Knight, Pennsylvania
Current Conditions -  °F | °C
As of 3:51 AM on Saturday 29 Nov 2014 (Local Time) from KPIT Reporting Station
Overcast Overcast  
Wind Chill: 20°   Ceiling: 7000
Heat Index: 28°   Visibility: 10mi
Dew Point: 20°   Wind: 8mph
Humidity: 72%   Direction: 150°SSE
Pressure: 30.13"   Gusts: NA
Location:  40.5502°N, 80.0492°W
Report Text: KPIT 290851Z 15007KT 10SM OVC070 M02/M07 A3013 RMK AO2 SLP226 T10221067 58008
Loading
Personal Weather Stations






























Interactive Weather Map New forecast layout! Learn more

10-Day Weather Forecast

Advertisements
Track Severe Weather on mobile